Time;durP1;ratioP1;P1;durP2;ratioP2;P2;SDS_P1;SDS_P2;PMS_P1;PMS_P2;Temp;Humidity;BMP_temperature;BMP_pressure;BME280_temperature;BME280_humidity;BME280_pressure;Samples;Min_cycle;Max_cycle;Signal;HPM_P1;HPM_P2
2022/08/08 00:00:04;;;;;;;4.40;2.78;;;;;;;;;;5096513;28;20469;-63
2022/08/08 00:02:48;;;;;;;6.43;2.67;;;;;;;;;;5096294;28;20035;-63
2022/08/08 00:05:44;;;;;;;5.97;2.70;;;;;;;;;;5096352;28;20024;-63
2022/08/08 00:08:45;;;;;;;7.65;3.08;;;;;;;;;;5096160;28;20051;-64
2022/08/08 00:11:23;;;;;;;7.47;2.58;;;;;;;;;;5053731;28;20065;-67
2022/08/08 00:14:14;;;;;;;6.03;3.10;;;;;;;;;;5053728;28;20072;-65
2022/08/08 00:16:50;;;;;;;3.58;2.55;;;;;;;;;;5053842;28;20045;-63
2022/08/08 00:19:33;;;;;;;6.30;2.50;;;;;;;;;;5053654;28;20090;-64
2022/08/08 00:22:08;;;;;;;7.93;2.90;;;;;;;;;;5053059;28;20053;-63
2022/08/08 00:24:43;;;;;;;7.93;3.70;;;;;;;;;;5053411;28;20383;-64
2022/08/08 00:27:11;;;;;;;8.25;3.30;;;;;;;;;;5053619;28;20443;-64
2022/08/08 00:29:44;;;;;;;4.25;2.80;;;;;;;;;;5053413;28;20102;-64
2022/08/08 00:32:15;;;;;;;5.20;2.72;;;;;;;;;;5053288;28;20099;-65
2022/08/08 00:37:57;;;;;;;6.00;2.78;;;;;;;;;;5053645;28;20403;-66
2022/08/08 00:40:28;;;;;;;6.25;2.60;;;;;;;;;;5053184;28;20029;-65
2022/08/08 00:43:12;;;;;;;4.90;2.60;;;;;;;;;;5053211;28;20437;-65
2022/08/08 00:46:13;;;;;;;6.97;2.42;;;;;;;;;;5053301;28;20064;-67
2022/08/08 00:49:10;;;;;;;4.47;2.30;;;;;;;;;;5088601;28;20085;-66
2022/08/08 00:52:08;;;;;;;6.10;2.70;;;;;;;;;;5094893;28;20069;-65
2022/08/08 00:55:04;;;;;;;4.22;2.42;;;;;;;;;;5095770;28;20061;-65
2022/08/08 00:58:19;;;;;;;7.43;3.15;;;;;;;;;;5095351;28;20054;-66
2022/08/08 01:01:10;;;;;;;7.15;2.75;;;;;;;;;;5052851;28;20512;-66
2022/08/08 01:03:57;;;;;;;3.88;2.42;;;;;;;;;;5052906;28;20130;-65
2022/08/08 01:06:53;;;;;;;6.60;2.88;;;;;;;;;;5052770;28;20314;-67
2022/08/08 01:09:57;;;;;;;10.10;2.72;;;;;;;;;;5052776;28;20041;-65
2022/08/08 01:12:48;;;;;;;5.97;2.55;;;;;;;;;;5052489;28;20051;-65
2022/08/08 01:15:32;;;;;;;5.07;2.75;;;;;;;;;;5052694;28;20099;-66
2022/08/08 01:18:32;;;;;;;5.60;2.95;;;;;;;;;;5052436;28;20048;-65
2022/08/08 01:21:18;;;;;;;5.47;2.80;;;;;;;;;;5052376;28;20029;-65
2022/08/08 01:23:56;;;;;;;4.88;2.75;;;;;;;;;;5052441;28;20104;-65
2022/08/08 01:26:58;;;;;;;4.22;2.72;;;;;;;;;;5052481;28;20131;-66
2022/08/08 01:29:44;;;;;;;6.00;2.80;;;;;;;;;;5052372;28;20131;-66
2022/08/08 01:32:36;;;;;;;7.45;3.15;;;;;;;;;;5077278;28;20044;-65
2022/08/08 01:35:05;;;;;;;4.13;2.75;;;;;;;;;;5052283;28;20358;-65
2022/08/08 01:37:52;;;;;;;6.72;3.40;;;;;;;;;;5051808;28;20033;-66
2022/08/08 01:40:17;;;;;;;5.65;2.78;;;;;;;;;;5052056;28;20087;-65
2022/08/08 01:43:07;;;;;;;8.80;3.00;;;;;;;;;;5052097;28;20033;-67
2022/08/08 01:46:02;;;;;;;4.75;2.80;;;;;;;;;;5052225;28;20115;-65
2022/08/08 01:48:36;;;;;;;10.07;3.03;;;;;;;;;;5052039;28;20032;-65
2022/08/08 01:51:07;;;;;;;7.13;3.20;;;;;;;;;;5051814;28;20481;-66
2022/08/08 01:53:53;;;;;;;9.18;3.00;;;;;;;;;;5051863;28;20044;-67
2022/08/08 01:56:43;;;;;;;5.43;3.28;;;;;;;;;;5051936;28;20032;-67
2022/08/08 01:59:21;;;;;;;6.45;3.17;;;;;;;;;;5051988;28;20051;-65
2022/08/08 02:02:21;;;;;;;9.15;3.50;;;;;;;;;;5051781;28;20115;-66
2022/08/08 02:05:21;;;;;;;7.80;3.25;;;;;;;;;;5050461;28;20060;-67
2022/08/08 02:08:09;;;;;;;5.13;3.22;;;;;;;;;;4992244;28;20049;-66
2022/08/08 02:11:12;;;;;;;9.15;3.20;;;;;;;;;;4992424;28;20058;-66
2022/08/08 02:14:00;;;;;;;7.22;3.33;;;;;;;;;;5008751;28;20034;-65
2022/08/08 02:16:47;;;;;;;5.18;3.28;;;;;;;;;;5011850;28;20026;-67
2022/08/08 02:19:26;;;;;;;4.22;3.10;;;;;;;;;;5011691;28;20159;-66
2022/08/08 02:24:50;;;;;;;8.45;3.67;;;;;;;;;;5011686;28;20029;-65
2022/08/08 02:27:50;;;;;;;6.68;3.63;;;;;;;;;;5011681;28;20026;-66
2022/08/08 02:30:36;;;;;;;8.75;3.42;;;;;;;;;;5011581;28;20065;-66
2022/08/08 02:33:14;;;;;;;8.23;4.38;;;;;;;;;;5011560;28;20430;-63
2022/08/08 02:35:45;;;;;;;9.93;3.92;;;;;;;;;;5011362;28;20026;-67
2022/08/08 02:38:29;;;;;;;6.60;3.28;;;;;;;;;;5011414;28;20025;-67
2022/08/08 02:41:19;;;;;;;7.63;3.38;;;;;;;;;;5011316;28;20426;-66
2022/08/08 02:43:54;;;;;;;8.35;3.90;;;;;;;;;;5066404;28;20040;-66
2022/08/08 02:46:41;;;;;;;9.70;3.33;;;;;;;;;;5093300;28;20154;-66
2022/08/08 02:49:37;;;;;;;10.13;3.88;;;;;;;;;;5092989;28;20031;-66
2022/08/08 02:52:30;;;;;;;5.63;3.70;;;;;;;;;;5093257;28;20024;-67
2022/08/08 02:55:14;;;;;;;7.82;3.60;;;;;;;;;;5093230;28;20035;-66
2022/08/08 02:58:01;;;;;;;7.90;3.63;;;;;;;;;;5093128;28;20381;-65
2022/08/08 03:00:29;;;;;;;8.40;3.83;;;;;;;;;;5092896;28;20024;-66
2022/08/08 03:03:23;;;;;;;8.35;3.40;;;;;;;;;;5092822;28;20028;-65
2022/08/08 03:06:24;;;;;;;6.07;3.58;;;;;;;;;;5093078;28;20078;-65
2022/08/08 03:09:27;;;;;;;12.25;3.58;;;;;;;;;;5092908;28;20381;-66
2022/08/08 03:12:04;;;;;;;8.43;3.58;;;;;;;;;;5093025;28;20051;-66
2022/08/08 03:14:46;;;;;;;10.23;3.40;;;;;;;;;;5092650;28;20419;-66
2022/08/08 03:17:17;;;;;;;8.60;3.90;;;;;;;;;;5092838;28;20107;-66
2022/08/08 03:22:30;;;;;;;11.05;3.80;;;;;;;;;;5092442;28;20054;-66
2022/08/08 03:24:58;;;;;;;8.30;3.50;;;;;;;;;;5091444;28;20032;-65
2022/08/08 03:27:44;;;;;;;11.13;4.18;;;;;;;;;;5092836;28;20115;-66
2022/08/08 03:30:12;;;;;;;6.90;3.58;;;;;;;;;;5092686;28;20031;-67
2022/08/08 03:35:24;;;;;;;7.32;3.25;;;;;;;;;;5092943;28;20038;-66
2022/08/08 03:37:51;;;;;;;12.63;4.75;;;;;;;;;;5092683;28;20062;-67
2022/08/08 03:40:19;;;;;;;8.43;4.03;;;;;;;;;;5092333;28;20114;-66
2022/08/08 03:42:46;;;;;;;12.68;4.20;;;;;;;;;;5092378;28;20020;-66
2022/08/08 03:45:17;;;;;;;11.73;4.13;;;;;;;;;;5092489;28;20477;-66
2022/08/08 03:47:44;;;;;;;5.72;3.58;;;;;;;;;;5092439;28;20020;-67
2022/08/08 03:50:19;;;;;;;11.32;3.90;;;;;;;;;;5092479;28;20034;-66
2022/08/08 03:52:45;;;;;;;11.27;3.70;;;;;;;;;;5092393;28;20029;-66
2022/08/08 03:55:15;;;;;;;12.88;3.80;;;;;;;;;;5092616;28;20028;-67
2022/08/08 03:57:46;;;;;;;13.88;5.18;;;;;;;;;;5092619;28;20027;-65
2022/08/08 04:00:13;;;;;;;;;;;;;;;;;;5092863;28;20067;-67
2022/08/08 04:02:39;;;;;;;11.55;3.75;;;;;;;;;;5092004;28;19912;-66
2022/08/08 04:05:05;;;;;;;12.77;4.00;;;;;;;;;;5092499;28;20055;-66
2022/08/08 04:07:36;;;;;;;16.42;3.92;;;;;;;;;;5092390;28;20059;-66
2022/08/08 04:10:01;;;;;;;9.60;4.10;;;;;;;;;;5092215;28;20031;-67
2022/08/08 04:12:27;;;;;;;8.52;4.00;;;;;;;;;;5092506;28;20024;-66
2022/08/08 04:14:53;;;;;;;10.15;3.65;;;;;;;;;;5092343;28;20465;-65
2022/08/08 04:17:18;;;;;;;13.13;4.28;;;;;;;;;;5092119;28;20024;-66
2022/08/08 04:19:44;;;;;;;9.57;4.70;;;;;;;;;;5092161;28;20499;-66
2022/08/08 04:22:09;;;;;;;11.45;3.67;;;;;;;;;;5090577;28;20055;-66
2022/08/08 04:24:35;;;;;;;10.35;3.80;;;;;;;;;;5092126;28;20031;-66
2022/08/08 04:27:00;;;;;;;10.02;4.20;;;;;;;;;;5093495;28;20044;-66
2022/08/08 04:29:26;;;;;;;8.25;4.03;;;;;;;;;;5095751;28;20028;-65
2022/08/08 04:31:52;;;;;;;10.18;3.97;;;;;;;;;;5095471;28;20024;-65
2022/08/08 04:34:17;;;;;;;7.18;3.85;;;;;;;;;;5095886;28;20024;-65
2022/08/08 04:36:43;;;;;;;11.23;4.40;;;;;;;;;;5094655;28;20060;-66
2022/08/08 04:39:08;;;;;;;11.25;4.03;;;;;;;;;;5095858;28;20035;-66
2022/08/08 04:41:34;;;;;;;7.78;4.10;;;;;;;;;;5095576;28;20039;-66
2022/08/08 04:43:59;;;;;;;7.78;3.83;;;;;;;;;;5095588;28;20098;-65
2022/08/08 04:46:25;;;;;;;13.85;4.43;;;;;;;;;;5095375;28;20524;-66
2022/08/08 04:48:50;;;;;;;12.02;4.72;;;;;;;;;;5095356;28;20491;-67
2022/08/08 04:51:16;;;;;;;12.40;4.18;;;;;;;;;;5095342;28;20389;-67
2022/08/08 04:53:42;;;;;;;7.78;4.70;;;;;;;;;;5095199;28;20027;-65
2022/08/08 04:56:07;;;;;;;12.95;4.55;;;;;;;;;;5095372;28;20042;-66
2022/08/08 04:58:33;;;;;;;12.05;4.35;;;;;;;;;;5095031;28;20030;-66
2022/08/08 05:00:58;;;;;;;8.07;4.28;;;;;;;;;;5094719;28;20051;-66
2022/08/08 05:03:24;;;;;;;16.27;4.95;;;;;;;;;;5095048;28;20028;-66
2022/08/08 05:05:50;;;;;;;14.02;4.65;;;;;;;;;;5095128;28;20350;-66
2022/08/08 05:08:15;;;;;;;9.10;4.03;;;;;;;;;;5094942;28;20519;-65
2022/08/08 05:10:41;;;;;;;12.60;4.20;;;;;;;;;;5094993;28;20038;-65
2022/08/08 05:13:06;;;;;;;8.73;4.68;;;;;;;;;;5094849;28;20048;-65
2022/08/08 05:15:32;;;;;;;14.13;5.18;;;;;;;;;;5095035;28;20492;-67
2022/08/08 05:17:57;;;;;;;12.30;4.93;;;;;;;;;;5094849;28;20415;-66
2022/08/08 05:20:23;;;;;;;8.50;4.55;;;;;;;;;;5094819;28;20035;-66
2022/08/08 05:22:49;;;;;;;10.82;4.85;;;;;;;;;;5094338;28;20048;-65
2022/08/08 05:25:15;;;;;;;10.48;4.55;;;;;;;;;;5094962;28;20086;-67
2022/08/08 05:27:41;;;;;;;16.10;4.60;;;;;;;;;;5094630;28;20020;-64
2022/08/08 05:30:09;;;;;;;9.57;4.75;;;;;;;;;;5094320;28;20550;-66
2022/08/08 05:32:37;;;;;;;8.00;4.70;;;;;;;;;;5094653;28;20358;-66
2022/08/08 05:35:03;;;;;;;9.40;4.15;;;;;;;;;;5094579;28;20091;-66
2022/08/08 05:37:31;;;;;;;6.60;4.03;;;;;;;;;;5094388;28;20034;-65
2022/08/08 05:40:00;;;;;;;10.73;4.50;;;;;;;;;;5093192;28;20020;-65
2022/08/08 05:42:41;;;;;;;7.95;4.30;;;;;;;;;;5094351;28;20123;-66
2022/08/08 05:45:08;;;;;;;13.27;4.70;;;;;;;;;;5094290;28;20111;-65
2022/08/08 05:47:36;;;;;;;12.40;4.50;;;;;;;;;;5094215;28;20028;-65
2022/08/08 05:50:05;;;;;;;8.15;4.30;;;;;;;;;;5094237;28;20024;-67
2022/08/08 05:52:33;;;;;;;10.48;4.75;;;;;;;;;;5094142;28;20108;-66
2022/08/08 05:55:00;;;;;;;10.95;4.28;;;;;;;;;;5094184;28;20423;-65
2022/08/08 05:57:27;;;;;;;14.75;4.60;;;;;;;;;;5094029;28;20074;-67
2022/08/08 05:59:57;;;;;;;12.00;4.68;;;;;;;;;;5094080;28;20063;-67
2022/08/08 06:05:11;;;;;;;11.35;4.75;;;;;;;;;;5094386;28;20092;-65
2022/08/08 06:07:39;;;;;;;8.95;4.68;;;;;;;;;;5093907;28;20066;-65
2022/08/08 06:10:09;;;;;;;8.65;4.72;;;;;;;;;;5093824;28;20066;-63
2022/08/08 06:12:35;;;;;;;13.30;4.57;;;;;;;;;;5093658;28;20035;-64
2022/08/08 06:15:06;;;;;;;10.40;4.50;;;;;;;;;;5093551;28;20028;-62
2022/08/08 06:17:37;;;;;;;14.50;4.72;;;;;;;;;;5093821;28;20051;-64
2022/08/08 06:20:08;;;;;;;7.35;4.55;;;;;;;;;;5093621;28;20028;-67
2022/08/08 06:22:34;;;;;;;13.63;4.40;;;;;;;;;;5093227;28;20135;-65
2022/08/08 06:24:59;;;;;;;18.95;5.10;;;;;;;;;;5093648;28;20103;-66
2022/08/08 06:27:46;;;;;;;9.40;4.50;;;;;;;;;;5093436;28;20028;-65
2022/08/08 06:30:13;;;;;;;10.30;4.60;;;;;;;;;;5093447;28;20032;-66
2022/08/08 06:32:51;;;;;;;12.27;4.68;;;;;;;;;;5092151;28;20031;-63
2022/08/08 06:35:18;;;;;;;9.27;4.63;;;;;;;;;;5093496;28;20099;-63
2022/08/08 06:37:58;;;;;;;12.10;4.38;;;;;;;;;;5093286;28;20036;-64
2022/08/08 06:40:28;;;;;;;8.63;4.25;;;;;;;;;;5093006;28;20330;-63
2022/08/08 06:43:02;;;;;;;12.18;4.15;;;;;;;;;;5093136;28;20067;-64
2022/08/08 06:45:32;;;;;;;11.63;4.65;;;;;;;;;;5093087;28;20020;-65
2022/08/08 06:47:58;;;;;;;7.03;3.95;;;;;;;;;;5093055;28;20023;-63
2022/08/08 06:50:25;;;;;;;9.88;4.07;;;;;;;;;;5092705;28;20089;-63
2022/08/08 06:52:51;;;;;;;11.20;5.03;;;;;;;;;;5093224;28;20058;-63
2022/08/08 06:55:17;;;;;;;5.53;3.13;;;;;;;;;;5092817;28;20069;-64
2022/08/08 06:57:43;;;;;;;16.98;3.58;;;;;;;;;;5093116;28;20028;-64
2022/08/08 07:00:09;;;;;;;8.95;3.10;;;;;;;;;;5091988;28;20103;-63
2022/08/08 07:02:35;;;;;;;6.65;3.28;;;;;;;;;;5068552;28;20029;-65
2022/08/08 07:05:06;;;;;;;12.13;3.40;;;;;;;;;;5063039;28;20587;-64
2022/08/08 07:07:52;;;;;;;13.35;4.00;;;;;;;;;;5062210;28;20025;-63
2022/08/08 07:10:20;;;;;;;6.65;3.20;;;;;;;;;;5059603;28;20085;-64
2022/08/08 07:12:50;;;;;;;9.50;3.30;;;;;;;;;;5063355;28;20024;-64
2022/08/08 07:15:21;;;;;;;9.30;3.10;;;;;;;;;;5060307;28;20016;-64
2022/08/08 07:17:49;;;;;;;9.55;3.00;;;;;;;;;;5060384;28;20016;-63
2022/08/08 07:20:23;;;;;;;9.65;3.10;;;;;;;;;;5061768;28;20497;-63
2022/08/08 07:23:17;;;;;;;6.90;3.17;;;;;;;;;;5063752;28;20427;-64
2022/08/08 07:25:45;;;;;;;5.93;2.58;;;;;;;;;;5042760;28;20041;-64
2022/08/08 07:28:14;;;;;;;5.43;2.55;;;;;;;;;;5048621;28;20067;-63
2022/08/08 07:30:40;;;;;;;7.68;2.50;;;;;;;;;;5048611;28;20057;-63
2022/08/08 07:33:10;;;;;;;13.55;4.00;;;;;;;;;;5049088;28;20385;-63
2022/08/08 07:35:39;;;;;;;6.93;2.80;;;;;;;;;;5049051;28;20672;-63
2022/08/08 07:38:05;;;;;;;6.68;2.30;;;;;;;;;;5048579;28;20021;-64
2022/08/08 07:40:31;;;;;;;6.38;3.13;;;;;;;;;;5048164;28;20036;-63
2022/08/08 07:42:59;;;;;;;6.50;2.50;;;;;;;;;;5048723;28;20024;-63
2022/08/08 07:45:25;;;;;;;4.97;2.40;;;;;;;;;;5047918;28;20029;-65
2022/08/08 07:47:53;;;;;;;5.60;2.40;;;;;;;;;;5048779;28;20501;-63
2022/08/08 07:50:20;;;;;;;8.48;2.50;;;;;;;;;;5066413;28;20025;-65
2022/08/08 07:52:51;;;;;;;4.55;2.28;;;;;;;;;;5068435;28;20052;-64
2022/08/08 07:55:25;;;;;;;4.63;2.25;;;;;;;;;;5068707;28;20046;-64
2022/08/08 07:58:26;;;;;;;6.90;2.38;;;;;;;;;;5069267;28;20108;-63
2022/08/08 08:01:01;;;;;;;7.82;2.40;;;;;;;;;;5055463;28;20048;-64
2022/08/08 08:03:42;;;;;;;7.82;2.45;;;;;;;;;;5071549;28;20021;-63
2022/08/08 08:06:11;;;;;;;4.90;2.40;;;;;;;;;;5072920;28;20481;-66
2022/08/08 08:08:39;;;;;;;9.98;2.30;;;;;;;;;;5072595;28;20090;-63
2022/08/08 08:11:12;;;;;;;5.10;2.72;;;;;;;;;;5071423;28;20033;-64
2022/08/08 08:13:51;;;;;;;4.43;2.55;;;;;;;;;;5071331;28;20047;-63
2022/08/08 08:16:28;;;;;;;4.30;2.10;;;;;;;;;;5071156;28;20445;-66
2022/08/08 08:19:04;;;;;;;10.40;2.53;;;;;;;;;;5072776;28;20020;-63
2022/08/08 08:21:54;;;;;;;8.15;2.30;;;;;;;;;;5070868;28;20470;-64
2022/08/08 08:24:20;;;;;;;6.75;2.13;;;;;;;;;;5072281;28;20120;-65
2022/08/08 08:26:46;;;;;;;5.57;2.30;;;;;;;;;;5072615;28;20034;-64
2022/08/08 08:29:11;;;;;;;7.22;2.42;;;;;;;;;;5072067;28;20047;-63
2022/08/08 08:31:37;;;;;;;8.15;2.30;;;;;;;;;;5071614;28;20040;-66
2022/08/08 08:34:03;;;;;;;7.82;2.50;;;;;;;;;;5071921;28;20078;-63
2022/08/08 08:36:28;;;;;;;5.22;2.13;;;;;;;;;;5072047;28;20032;-63
2022/08/08 08:38:54;;;;;;;7.93;2.20;;;;;;;;;;5072378;28;20035;-65
2022/08/08 08:41:20;;;;;;;3.92;2.03;;;;;;;;;;5071259;28;20367;-65
2022/08/08 08:43:48;;;;;;;7.50;2.70;;;;;;;;;;5071755;28;20039;-66
2022/08/08 08:46:14;;;;;;;4.35;2.20;;;;;;;;;;5072166;28;20456;-64
2022/08/08 08:48:41;;;;;;;8.85;3.08;;;;;;;;;;5071765;28;20081;-64
2022/08/08 08:51:12;;;;;;;8.73;2.30;;;;;;;;;;5071432;28;20469;-65
2022/08/08 08:53:52;;;;;;;4.50;2.00;;;;;;;;;;5071160;28;20426;-64
2022/08/08 08:56:19;;;;;;;;;;;;;;;;;;5071627;28;20529;-65
2022/08/08 08:58:47;;;;;;;5.05;2.15;;;;;;;;;;5071008;28;20276;-66
2022/08/08 09:01:15;;;;;;;4.82;2.30;;;;;;;;;;5071112;28;20068;-64
2022/08/08 09:03:43;;;;;;;4.63;2.42;;;;;;;;;;5071384;28;20078;-65
2022/08/08 09:06:10;;;;;;;6.50;2.30;;;;;;;;;;5071568;28;20024;-65
2022/08/08 09:08:43;;;;;;;6.07;2.40;;;;;;;;;;5071318;28;20036;-65
2022/08/08 09:11:10;;;;;;;7.28;2.22;;;;;;;;;;5070787;28;20397;-64
2022/08/08 09:13:38;;;;;;;6.55;2.60;;;;;;;;;;5069799;28;20066;-65
2022/08/08 09:16:04;;;;;;;7.50;2.75;;;;;;;;;;5070745;28;20028;-65
2022/08/08 09:18:30;;;;;;;6.15;2.55;;;;;;;;;;5070563;28;20397;-65
2022/08/08 09:20:57;;;;;;;5.78;2.50;;;;;;;;;;5070349;28;20020;-65
2022/08/08 09:23:24;;;;;;;5.32;2.50;;;;;;;;;;5055005;28;20075;-65
2022/08/08 09:26:46;;;;;;;6.13;2.80;;;;;;;;;;5050593;28;20484;-66
2022/08/08 09:29:21;;;;;;;3.97;2.30;;;;;;;;;;5026042;28;20518;-64
2022/08/08 09:32:06;;;;;;;6.00;2.40;;;;;;;;;;5028458;28;20034;-66
2022/08/08 09:34:34;;;;;;;5.35;2.60;;;;;;;;;;5028620;28;20042;-66
2022/08/08 09:37:08;;;;;;;7.78;2.50;;;;;;;;;;5024932;28;20061;-66
2022/08/08 09:40:07;;;;;;;5.10;2.60;;;;;;;;;;5009076;28;20041;-66
2022/08/08 09:42:35;;;;;;;4.60;3.00;;;;;;;;;;5009598;28;20577;-65
2022/08/08 09:45:08;;;;;;;6.40;2.80;;;;;;;;;;5029020;28;20513;-65
2022/08/08 09:47:39;;;;;;;9.13;3.25;;;;;;;;;;5008109;28;20037;-66
2022/08/08 09:50:26;;;;;;;10.77;3.20;;;;;;;;;;5007972;28;20025;-65
2022/08/08 09:52:53;;;;;;;4.65;2.53;;;;;;;;;;5009148;28;20144;-65
2022/08/08 09:55:20;;;;;;;6.75;2.50;;;;;;;;;;5008130;28;20125;-66
2022/08/08 09:57:47;;;;;;;6.43;2.97;;;;;;;;;;5008609;28;20372;-64
2022/08/08 10:00:15;;;;;;;5.85;2.83;;;;;;;;;;5008260;28;20487;-66
2022/08/08 10:02:51;;;;;;;7.75;2.95;;;;;;;;;;5008404;28;20394;-66
2022/08/08 10:05:20;;;;;;;9.75;2.85;;;;;;;;;;5022339;28;20060;-64
2022/08/08 10:07:51;;;;;;;5.10;2.83;;;;;;;;;;5050218;28;20381;-65
2022/08/08 10:10:31;;;;;;;5.22;2.35;;;;;;;;;;5049864;28;20108;-65
2022/08/08 10:12:58;;;;;;;5.25;2.75;;;;;;;;;;5050249;28;20033;-64
2022/08/08 10:15:26;;;;;;;3.88;2.30;;;;;;;;;;5048765;28;20263;-65
2022/08/08 10:17:54;;;;;;;6.20;2.72;;;;;;;;;;5049547;28;20382;-65
2022/08/08 10:20:22;;;;;;;5.82;2.55;;;;;;;;;;5049652;28;20021;-64
2022/08/08 10:23:02;;;;;;;5.88;2.30;;;;;;;;;;5051879;28;20127;-64
2022/08/08 10:25:29;;;;;;;;;;;;;;;;;;5063012;28;20070;-66
2022/08/08 10:27:55;;;;;;;4.78;2.65;;;;;;;;;;5055404;28;20336;-64
2022/08/08 10:30:23;;;;;;;9.35;4.32;;;;;;;;;;5058076;28;20025;-65
2022/08/08 10:32:54;;;;;;;18.10;5.13;;;;;;;;;;5048545;28;20086;-64
2022/08/08 10:35:31;;;;;;;14.93;5.90;;;;;;;;;;5060101;28;20029;-65
2022/08/08 10:37:58;;;;;;;14.05;5.22;;;;;;;;;;5056760;28;20481;-65
2022/08/08 10:40:26;;;;;;;12.98;5.55;;;;;;;;;;5060483;28;20075;-65
2022/08/08 10:42:57;;;;;;;13.82;4.43;;;;;;;;;;5061543;28;20021;-65
2022/08/08 10:45:22;;;;;;;6.63;2.40;;;;;;;;;;5057126;28;20540;-64
2022/08/08 10:47:59;;;;;;;5.38;2.60;;;;;;;;;;5058657;28;20033;-64
2022/08/08 10:50:34;;;;;;;6.95;2.35;;;;;;;;;;5054248;28;20074;-66
2022/08/08 10:53:02;;;;;;;5.22;2.60;;;;;;;;;;5058529;28;20048;-64
2022/08/08 10:55:27;;;;;;;5.05;2.88;;;;;;;;;;5059363;28;20036;-65
2022/08/08 10:57:53;;;;;;;4.00;2.30;;;;;;;;;;5059394;28;20110;-65
2022/08/08 11:00:25;;;;;;;6.85;2.80;;;;;;;;;;5051137;28;20106;-66
2022/08/08 11:02:53;;;;;;;5.38;2.67;;;;;;;;;;5064471;28;20474;-65
2022/08/08 11:05:18;;;;;;;7.20;3.67;;;;;;;;;;5068590;28;20478;-64
2022/08/08 11:07:49;;;;;;;13.23;3.80;;;;;;;;;;5069042;28;20078;-65
2022/08/08 11:10:17;;;;;;;8.35;4.03;;;;;;;;;;5068101;28;20032;-65
2022/08/08 11:12:51;;;;;;;12.50;4.00;;;;;;;;;;5069058;28;20020;-64
2022/08/08 11:15:22;;;;;;;10.35;4.32;;;;;;;;;;5068430;28;20032;-65
2022/08/08 11:17:48;;;;;;;9.63;3.60;;;;;;;;;;5068871;28;20056;-66
2022/08/08 11:20:26;;;;;;;8.65;3.53;;;;;;;;;;5068818;28;20033;-65
2022/08/08 11:22:55;;;;;;;10.77;3.92;;;;;;;;;;5056077;28;20564;-64
2022/08/08 11:25:25;;;;;;;11.17;3.77;;;;;;;;;;5048455;28;20033;-64
2022/08/08 11:27:53;;;;;;;9.18;3.53;;;;;;;;;;5049198;28;20063;-64
2022/08/08 11:30:22;;;;;;;11.25;3.53;;;;;;;;;;5047782;28;20045;-65
2022/08/08 11:32:52;;;;;;;9.43;3.55;;;;;;;;;;5048620;28;20029;-64
2022/08/08 11:35:20;;;;;;;9.50;4.10;;;;;;;;;;5048576;28;20021;-65
2022/08/08 11:37:45;;;;;;;9.80;3.22;;;;;;;;;;5052580;28;20032;-64
2022/08/08 11:40:12;;;;;;;7.82;3.30;;;;;;;;;;5051692;28;20363;-66
2022/08/08 11:42:40;;;;;;;5.68;3.33;;;;;;;;;;5052662;28;20025;-66
2022/08/08 11:45:07;;;;;;;7.35;2.80;;;;;;;;;;5051743;28;20544;-64
2022/08/08 11:47:34;;;;;;;8.25;3.20;;;;;;;;;;5065133;28;20028;-64
2022/08/08 11:50:05;;;;;;;7.43;3.22;;;;;;;;;;5054761;28;20408;-66
2022/08/08 11:52:32;;;;;;;6.82;3.13;;;;;;;;;;5060279;28;20186;-64
2022/08/08 11:54:58;;;;;;;6.50;2.83;;;;;;;;;;5061973;28;20021;-64
2022/08/08 11:57:28;;;;;;;6.28;3.13;;;;;;;;;;5057573;28;20025;-64
2022/08/08 12:00:00;;;;;;;;;;;;;;;;;;5065025;28;20025;-66
2022/08/08 12:02:30;;;;;;;5.43;2.80;;;;;;;;;;5053159;28;19912;-66
2022/08/08 12:05:02;;;;;;;;;;;;;;;;;;5062838;28;20067;-64
2022/08/08 12:07:28;;;;;;;9.45;3.10;;;;;;;;;;5075520;28;19915;-64
2022/08/08 12:09:55;;;;;;;4.45;2.70;;;;;;;;;;5075640;28;20017;-65
2022/08/08 12:12:25;;;;;;;6.40;2.90;;;;;;;;;;5075563;28;20023;-65
2022/08/08 12:15:01;;;;;;;7.95;2.88;;;;;;;;;;5075239;28;20351;-65
2022/08/08 12:17:42;;;;;;;6.97;3.20;;;;;;;;;;5075434;28;20028;-65
2022/08/08 12:20:08;;;;;;;13.00;3.17;;;;;;;;;;5075536;28;20032;-64
2022/08/08 12:22:47;;;;;;;5.82;2.67;;;;;;;;;;5087357;28;20056;-64
2022/08/08 12:25:25;;;;;;;7.18;2.72;;;;;;;;;;5095527;28;20059;-65
2022/08/08 12:28:05;;;;;;;7.93;3.10;;;;;;;;;;5095600;28;20023;-65
2022/08/08 12:30:31;;;;;;;;;;;;;;;;;;5096051;28;20038;-64
2022/08/08 12:33:00;;;;;;;10.00;3.30;;;;;;;;;;5095405;28;19916;-63
2022/08/08 12:35:31;;;;;;;6.95;3.25;;;;;;;;;;5095588;28;20027;-65
2022/08/08 12:38:07;;;;;;;6.75;3.30;;;;;;;;;;5095517;28;20381;-63
2022/08/08 12:40:46;;;;;;;5.15;3.05;;;;;;;;;;5095594;28;20462;-64
2022/08/08 12:43:14;;;;;;;7.55;3.17;;;;;;;;;;5095327;28;20074;-65
2022/08/08 12:45:44;;;;;;;5.88;3.13;;;;;;;;;;5095613;28;20118;-64
2022/08/08 12:48:20;;;;;;;6.97;3.15;;;;;;;;;;5094470;28;20024;-65
2022/08/08 12:50:54;;;;;;;6.20;2.90;;;;;;;;;;5095364;28;20030;-63
2022/08/08 12:53:31;;;;;;;7.38;2.83;;;;;;;;;;5095119;28;20062;-65
2022/08/08 12:56:08;;;;;;;6.57;3.08;;;;;;;;;;5095223;28;20032;-64
2022/08/08 12:58:49;;;;;;;7.00;3.30;;;;;;;;;;5094989;28;20193;-65
2022/08/08 13:01:15;;;;;;;6.43;3.15;;;;;;;;;;5094923;28;20458;-65
2022/08/08 13:03:45;;;;;;;8.50;3.72;;;;;;;;;;5093842;28;20081;-65
2022/08/08 13:06:17;;;;;;;7.40;2.85;;;;;;;;;;5095024;28;20487;-65
2022/08/08 13:08:48;;;;;;;5.97;3.00;;;;;;;;;;5094802;28;20461;-65
2022/08/08 13:11:18;;;;;;;5.72;2.65;;;;;;;;;;5094873;28;20055;-64
2022/08/08 13:14:03;;;;;;;5.32;2.65;;;;;;;;;;5094626;28;20024;-65
2022/08/08 13:16:32;;;;;;;6.82;2.90;;;;;;;;;;5094918;28;20103;-64
2022/08/08 13:19:00;;;;;;;5.47;2.85;;;;;;;;;;5094494;28;20520;-66
2022/08/08 13:21:25;;;;;;;5.43;2.85;;;;;;;;;;5094341;28;20039;-65
2022/08/08 13:23:51;;;;;;;5.05;2.70;;;;;;;;;;5094823;28;20103;-64
2022/08/08 13:26:17;;;;;;;6.95;2.85;;;;;;;;;;5094208;28;20034;-65
2022/08/08 13:28:42;;;;;;;5.53;2.85;;;;;;;;;;5094388;28;20024;-64
2022/08/08 13:31:11;;;;;;;5.75;2.80;;;;;;;;;;5094421;28;20036;-64
2022/08/08 13:33:39;;;;;;;4.28;2.60;;;;;;;;;;5094550;28;20031;-65
2022/08/08 13:36:07;;;;;;;5.75;2.92;;;;;;;;;;5094359;28;20028;-64
2022/08/08 13:38:37;;;;;;;5.65;2.80;;;;;;;;;;5094285;28;20020;-64
2022/08/08 13:41:03;;;;;;;8.45;2.75;;;;;;;;;;5093887;28;20024;-65
2022/08/08 13:43:29;;;;;;;11.73;3.13;;;;;;;;;;5094283;28;20028;-65
2022/08/08 13:46:09;;;;;;;5.22;2.80;;;;;;;;;;5094255;28;20058;-65
2022/08/08 13:48:48;;;;;;;7.63;3.35;;;;;;;;;;5094009;28;20024;-65
2022/08/08 13:51:15;;;;;;;4.73;2.80;;;;;;;;;;5094157;28;20076;-64
2022/08/08 13:53:53;;;;;;;6.05;3.00;;;;;;;;;;5094164;28;20275;-65
2022/08/08 13:56:34;;;;;;;6.90;2.85;;;;;;;;;;5093815;28;20483;-64
2022/08/08 13:59:00;;;;;;;5.35;2.97;;;;;;;;;;5093813;28;20031;-65
2022/08/08 14:01:31;;;;;;;7.07;3.00;;;;;;;;;;5093636;28;20036;-65
2022/08/08 14:03:59;;;;;;;6.53;2.90;;;;;;;;;;5093476;28;20027;-65
2022/08/08 14:06:26;;;;;;;7.47;2.80;;;;;;;;;;5093834;28;20498;-65
2022/08/08 14:08:52;;;;;;;7.88;3.00;;;;;;;;;;5094163;28;20039;-64
2022/08/08 14:11:20;;;;;;;6.75;3.30;;;;;;;;;;5093742;28;20070;-65
2022/08/08 14:13:47;;;;;;;6.65;3.40;;;;;;;;;;5094109;28;20020;-65
2022/08/08 14:16:14;;;;;;;4.30;2.80;;;;;;;;;;5093644;28;20032;-64
2022/08/08 14:18:49;;;;;;;6.43;3.10;;;;;;;;;;5074352;28;20359;-64
2022/08/08 14:21:15;;;;;;;6.30;3.33;;;;;;;;;;5069215;28;20039;-63
2022/08/08 14:23:45;;;;;;;8.00;3.13;;;;;;;;;;5073832;28;20044;-63
2022/08/08 14:26:25;;;;;;;4.13;2.90;;;;;;;;;;5065796;28;20526;-65
2022/08/08 14:28:56;;;;;;;5.43;2.65;;;;;;;;;;5053080;28;20041;-63
2022/08/08 14:31:22;;;;;;;5.28;2.47;;;;;;;;;;5053020;28;20394;-65
2022/08/08 14:33:54;;;;;;;5.57;2.60;;;;;;;;;;5053208;28;20044;-65
2022/08/08 14:36:31;;;;;;;7.28;3.17;;;;;;;;;;5053123;28;20422;-63
2022/08/08 14:38:57;;;;;;;6.85;3.38;;;;;;;;;;5052605;28;20036;-64
2022/08/08 14:41:23;;;;;;;6.88;2.58;;;;;;;;;;5052901;28;20036;-64
2022/08/08 14:43:53;;;;;;;5.57;2.50;;;;;;;;;;5052958;28;20031;-64
2022/08/08 14:46:23;;;;;;;5.38;2.40;;;;;;;;;;5052964;28;20029;-64
2022/08/08 14:48:49;;;;;;;5.63;2.70;;;;;;;;;;5052756;28;20036;-65
2022/08/08 14:51:18;;;;;;;3.33;2.35;;;;;;;;;;5052723;28;20486;-64
2022/08/08 14:53:44;;;;;;;3.97;2.65;;;;;;;;;;5052646;28;20033;-66
2022/08/08 14:56:10;;;;;;;6.50;2.47;;;;;;;;;;5052703;28;20467;-64
2022/08/08 14:58:36;;;;;;;5.20;2.33;;;;;;;;;;5051477;28;20040;-64
2022/08/08 15:01:05;;;;;;;6.22;2.85;;;;;;;;;;5052508;28;20449;-64
2022/08/08 15:03:30;;;;;;;5.95;2.92;;;;;;;;;;5056316;28;20425;-64
2022/08/08 15:05:56;;;;;;;3.92;2.42;;;;;;;;;;5062121;28;20012;-64
2022/08/08 15:08:23;;;;;;;4.43;2.53;;;;;;;;;;5062733;28;20013;-65
2022/08/08 15:10:49;;;;;;;7.88;3.10;;;;;;;;;;5060667;28;20533;-63
2022/08/08 15:13:14;;;;;;;6.75;2.40;;;;;;;;;;5062135;28;20539;-64
2022/08/08 15:15:41;;;;;;;3.72;2.58;;;;;;;;;;5062631;28;20025;-63
2022/08/08 15:18:07;;;;;;;4.55;2.38;;;;;;;;;;5060751;28;20379;-64
2022/08/08 15:20:33;;;;;;;5.28;2.70;;;;;;;;;;5062516;28;20025;-63
2022/08/08 15:22:59;;;;;;;5.18;2.47;;;;;;;;;;5065899;28;20111;-63
2022/08/08 15:25:25;;;;;;;3.55;2.42;;;;;;;;;;5060841;28;20029;-64
2022/08/08 15:27:51;;;;;;;5.53;2.45;;;;;;;;;;5062328;28;20108;-63
2022/08/08 15:30:17;;;;;;;6.22;2.58;;;;;;;;;;5062019;28;20385;-65